Cottekill, New York
Current Conditions -  °F | °C
As of 7:53 PM on Tuesday 27 Jan 2015 (Local Time) from KPOU Reporting Station
Scattered Clouds Scattered Clouds  
Wind Chill:   Ceiling: Unl
Heat Index: 16°   Visibility: 10mi
Dew Point:   Wind: 13mph
Humidity: 62%   Direction: 350°N
Pressure: 29.79"   Gusts: NA
Location:  41.85°N, 74.1°W
Report Text: KPOU 280053Z 35011KT 10SM SCT043 M09/M15 A2979 RMK AO2 SLP089 T10891150
Loading
Personal Weather Stations






























Interactive Weather Map New forecast layout! Learn more

10-Day Weather Forecast

Advertisements
Track Severe Weather on mobile